Time;durP1;ratioP1;P1;durP2;ratioP2;P2;SDS_P1;SDS_P2;PMS_P1;PMS_P2;Temp;Humidity;BMP_temperature;BMP_pressure;BME280_temperature;BME280_humidity;BME280_pressure;Samples;Min_cycle;Max_cycle;Signal;HPM_P1;HPM_P2
2020/12/20 00:01:39;;;;;;;2.20;1.25;;;;;;;3.55;87.52;100020.53;5083837;28;20020;-77
2020/12/20 00:04:06;;;;;;;2.92;1.50;;;;;;;3.60;87.10;100012.84;5078960;28;20654;-76
2020/12/20 00:06:36;;;;;;;2.00;1.90;;;;;;;3.52;86.53;99997.44;5081167;28;20048;-77
2020/12/20 00:09:07;;;;;;;2.60;2.40;;;;;;;3.73;86.59;100051.78;5079666;28;20028;-77
2020/12/20 00:11:37;;;;;;;1.60;1.55;;;;;;;3.91;86.90;100054.88;5078783;28;20029;-78
2020/12/20 00:14:26;;;;;;;1.52;1.52;;;;;;;3.46;86.89;100011.72;5076005;28;20044;-76
2020/12/20 00:16:50;;;;;;;0.63;0.63;;;;;;;3.72;86.99;100030.25;5075127;28;20103;-78
2020/12/20 00:19:15;;;;;;;1.70;1.60;;;;;;;3.66;87.16;100055.13;5107923;28;20302;-77
2020/12/20 00:21:41;;;;;;;1.48;1.48;;;;;;;3.75;86.90;100045.94;5077527;28;20044;-77
2020/12/20 00:24:10;;;;;;;2.50;2.35;;;;;;;3.33;86.75;99982.94;5111076;28;20036;-77
2020/12/20 00:26:35;;;;;;;1.58;1.55;;;;;;;3.46;86.83;100006.25;5115842;28;20040;-83
2020/12/20 00:29:01;;;;;;;1.48;1.48;;;;;;;3.54;87.10;100016.22;5082750;28;20052;-79
2020/12/20 00:31:27;;;;;;;1.70;1.67;;;;;;;3.32;87.03;99984.09;5082216;28;20029;-78
2020/12/20 00:33:52;;;;;;;7.32;1.35;;;;;;;3.58;86.50;100047.13;5082309;28;20032;-82
2020/12/20 00:36:18;;;;;;;0.93;0.93;;;;;;;3.36;87.19;100023.22;5083183;28;20040;-78
2020/12/20 00:38:43;;;;;;;0.55;0.55;;;;;;;3.36;87.22;100015.81;5086415;28;20029;-80
2020/12/20 00:41:10;;;;;;;3.67;1.77;;;;;;;3.43;87.12;100050.69;5087459;28;20071;-82
2020/12/20 00:43:35;;;;;;;3.95;1.27;;;;;;;3.56;87.12;100033.03;5086169;28;20051;-83
2020/12/20 00:46:02;;;;;;;1.25;1.25;;;;;;;3.64;87.11;100056.63;5088768;28;20115;-84
2020/12/20 00:48:29;;;;;;;0.43;0.43;;;;;;;3.01;87.76;99972.09;5088842;28;20029;-82
2020/12/20 00:50:54;;;;;;;0.52;0.52;;;;;;;2.86;87.97;99967.44;5089270;28;20091;-82
2020/12/20 00:53:20;;;;;;;1.98;1.88;;;;;;;3.08;87.84;99974.97;5090171;28;20036;-81
2020/12/20 00:55:48;;;;;;;0.90;0.90;;;;;;;3.01;87.77;99979.50;5087812;28;20032;-84
2020/12/20 00:58:14;;;;;;;;;;;;;;;3.65;87.62;100059.00;5080240;28;20025;-84
2020/12/20 01:00:39;;;;;;;1.58;1.48;;;;;;;3.26;87.86;99998.03;5083241;28;19958;-86
2020/12/20 01:03:06;;;;;;;0.93;0.93;;;;;;;2.85;87.81;99944.81;5085082;28;20044;-84
2020/12/20 01:05:32;;;;;;;1.63;1.58;;;;;;;3.25;87.86;100007.34;5089079;28;20081;-87
2020/12/20 01:07:58;;;;;;;9.23;1.38;;;;;;;3.16;88.37;99975.94;5125326;28;20032;-83
2020/12/20 01:10:23;;;;;;;1.38;1.27;;;;;;;2.99;88.68;99968.94;5083995;28;20048;-87
2020/12/20 01:12:49;;;;;;;2.03;1.13;;;;;;;2.95;89.14;99968.06;5084234;28;20047;-85
2020/12/20 01:15:14;;;;;;;4.47;3.83;;;;;;;2.76;88.83;99968.00;5082334;28;20017;-88
2020/12/20 01:17:40;;;;;;;0.32;0.32;;;;;;;3.18;89.29;100009.16;5082025;28;20028;-87
2020/12/20 01:20:05;;;;;;;1.02;1.00;;;;;;;2.90;89.68;99953.88;5083086;28;20081;-84
2020/12/20 01:22:32;;;;;;;6.38;2.72;;;;;;;3.18;89.79;100007.22;5082447;28;20103;-84
2020/12/20 01:24:58;;;;;;;0.95;0.95;;;;;;;3.12;89.81;100007.84;5083488;28;20028;-83
2020/12/20 01:27:24;;;;;;;1.15;1.15;;;;;;;2.78;89.39;99965.69;5085746;28;20420;-86
2020/12/20 01:29:49;;;;;;;3.75;0.93;;;;;;;2.76;89.38;99957.88;5066405;28;20025;-85
2020/12/20 01:32:18;;;;;;;1.13;1.13;;;;;;;3.11;89.03;100000.78;5114945;28;20028;-89
2020/12/20 01:34:44;;;;;;;2.30;1.40;;;;;;;2.64;89.41;99924.44;5079572;28;20024;-87
2020/12/20 01:37:10;;;;;;;2.05;1.92;;;;;;;2.59;89.16;99930.16;5081409;28;20092;-85
2020/12/20 01:39:35;;;;;;;2.35;2.25;;;;;;;2.72;89.94;99937.88;5080612;28;20063;-89
2020/12/20 01:42:01;;;;;;;1.52;1.48;;;;;;;2.69;89.72;99967.81;5087170;28;20031;-89
2020/12/20 01:44:27;;;;;;;1.65;1.58;;;;;;;3.01;89.83;99995.88;5084341;28;20060;-89
2020/12/20 01:46:56;;;;;;;1.02;1.02;;;;;;;2.97;89.86;99992.25;5081498;28;20021;-83
2020/12/20 01:49:22;;;;;;;2.25;1.52;;;;;;;2.93;89.72;99984.00;5081419;28;20036;-85
2020/12/20 01:51:48;;;;;;;0.82;0.82;;;;;;;2.87;89.96;99999.06;5081424;28;20511;-88
2020/12/20 01:54:14;;;;;;;2.33;2.03;;;;;;;2.66;89.79;99949.41;5085364;28;20115;-90
2020/12/20 01:56:40;;;;;;;1.60;1.50;;;;;;;2.58;89.70;99962.09;5118516;28;20059;-89
2020/12/20 01:59:06;;;;;;;1.27;1.05;;;;;;;2.77;89.23;99975.03;5118745;28;20036;-88
2020/12/20 02:01:32;;;;;;;0.88;0.88;;;;;;;2.89;89.00;99960.50;5115473;28;20024;-89
2020/12/20 02:03:57;;;;;;;4.95;2.78;;;;;;;2.54;89.57;99953.03;5082690;28;20025;-89
2020/12/20 02:06:23;;;;;;;1.10;1.10;;;;;;;2.85;89.47;99971.31;5118253;28;20024;-88
2020/12/20 02:08:49;;;;;;;2.30;2.20;;;;;;;2.55;89.60;99940.16;5116080;28;20034;-87
2020/12/20 02:11:16;;;;;;;1.48;1.38;;;;;;;2.94;89.79;99990.25;5081945;28;20060;-82
2020/12/20 02:13:44;;;;;;;2.33;1.70;;;;;;;2.96;90.29;100012.50;5084298;28;20021;-87
2020/12/20 02:16:22;;;;;;;2.05;1.95;;;;;;;2.96;90.05;100004.31;5085696;28;20544;-88
2020/12/20 02:18:50;;;;;;;1.15;1.05;;;;;;;2.53;90.19;99923.38;5083693;28;20028;-84
2020/12/20 02:21:23;;;;;;;1.27;1.27;;;;;;;2.52;89.48;99927.25;5082807;28;20040;-86
2020/12/20 02:23:50;;;;;;;1.15;1.10;;;;;;;3.20;89.61;100037.69;5083266;28;20025;-85
2020/12/20 02:26:21;;;;;;;0.98;0.98;;;;;;;2.32;90.07;99937.28;5084481;28;20049;-89
2020/12/20 02:28:54;;;;;;;3.55;1.50;;;;;;;2.28;89.98;99945.38;5067333;28;20057;-90
2020/12/20 02:31:21;;;;;;;2.40;1.88;;;;;;;2.52;89.93;99960.00;5084951;28;20052;-89
2020/12/20 02:33:47;;;;;;;1.23;1.23;;;;;;;2.77;89.56;100008.56;5116490;28;20036;-89
2020/12/20 02:36:13;;;;;;;1.38;1.27;;;;;;;2.64;90.05;100000.81;5084105;28;20033;-88
2020/12/20 02:38:40;;;;;;;1.27;1.27;;;;;;;2.39;88.89;99949.16;5084935;28;20029;-90
2020/12/20 02:41:06;;;;;;;1.52;0.93;;;;;;;2.40;89.45;99909.84;5087557;28;20098;-89
2020/12/20 02:43:33;;;;;;;4.55;0.73;;;;;;;2.33;89.28;99939.66;5089648;28;20188;-90
2020/12/20 02:45:59;;;;;;;0.50;0.50;;;;;;;2.44;88.81;99945.38;5073425;28;20024;-88
2020/12/20 02:48:24;;;;;;;0.20;0.20;;;;;;;2.25;88.83;99931.63;5121975;28;20036;-89
2020/12/20 02:50:50;;;;;;;0.93;0.93;;;;;;;2.66;89.22;99984.88;5120634;28;20117;-89
2020/12/20 02:53:16;;;;;;;4.22;2.08;;;;;;;2.24;88.56;99936.28;5120861;28;20044;-89
2020/12/20 02:55:41;;;;;;;1.13;1.02;;;;;;;2.34;89.02;99943.97;5085871;28;20025;-90
2020/12/20 02:58:07;;;;;;;0.30;0.30;;;;;;;2.41;87.89;99963.22;5118716;28;20025;-91
2020/12/20 03:00:36;;;;;;;1.20;1.10;;;;;;;2.34;87.87;99930.34;5118599;28;20047;-90
2020/12/20 03:03:02;;;;;;;1.80;1.70;;;;;;;2.30;87.58;99934.88;5116610;28;20094;-90
2020/12/20 03:05:29;;;;;;;0.57;0.57;;;;;;;2.28;88.35;99952.75;5084162;28;20040;-89
2020/12/20 03:07:54;;;;;;;1.60;1.50;;;;;;;2.67;89.31;99987.25;5119164;28;20025;-87
2020/12/20 03:10:27;;;;;;;1.40;1.38;;;;;;;2.78;89.36;100001.16;5119984;28;20032;-90
2020/12/20 03:12:53;;;;;;;1.00;1.00;;;;;;;2.70;88.90;99994.75;5089371;28;20020;-84
2020/12/20 03:15:19;;;;;;;2.67;1.75;;;;;;;2.52;88.48;99965.44;5087255;28;20202;-89
2020/12/20 03:17:45;;;;;;;3.33;2.38;;;;;;;2.27;88.63;99916.53;5084960;28;20024;-89
2020/12/20 03:20:11;;;;;;;0.45;0.45;;;;;;;2.26;88.20;99922.31;5121626;28;20107;-90
2020/12/20 03:22:36;;;;;;;0.68;0.68;;;;;;;2.31;88.62;99936.47;5085586;28;20090;-90
2020/12/20 03:25:03;;;;;;;0.45;0.45;;;;;;;2.69;86.92;99976.78;5120335;28;20024;-81
2020/12/20 03:27:30;;;;;;;0.50;0.50;;;;;;;3.08;86.91;100013.19;5090082;28;20112;-85
2020/12/20 03:29:55;;;;;;;1.67;1.58;;;;;;;2.51;87.23;99955.66;5106163;28;20074;-82
2020/12/20 03:32:21;;;;;;;1.25;1.20;;;;;;;2.66;87.45;99984.88;5090339;28;20033;-82
2020/12/20 03:34:46;;;;;;;0.90;0.90;;;;;;;2.88;86.96;100000.66;5123992;28;20029;-85
2020/12/20 03:37:13;;;;;;;0.40;0.40;;;;;;;2.62;86.40;99956.72;5123959;28;20105;-82
2020/12/20 03:39:38;;;;;;;1.77;1.67;;;;;;;2.98;86.73;99996.56;5126077;28;20032;-80
2020/12/20 03:42:04;;;;;;;0.22;0.22;;;;;;;3.09;86.91;100009.34;5091266;28;20039;-80
2020/12/20 03:44:30;;;;;;;0.30;0.30;;;;;;;3.18;86.07;100011.88;5086055;28;20056;-81
2020/12/20 03:46:55;;;;;;;0.60;0.60;;;;;;;2.95;86.23;99981.72;5117646;28;20480;-81
2020/12/20 03:49:21;;;;;;;0.50;0.50;;;;;;;2.60;86.43;99923.53;5086361;28;20021;-77
2020/12/20 03:51:47;;;;;;;0.45;0.45;;;;;;;2.91;85.76;99977.28;5085059;28;20085;-79
2020/12/20 03:54:13;;;;;;;1.88;1.77;;;;;;;2.84;86.58;99972.47;5085452;28;20115;-76
2020/12/20 03:56:38;;;;;;;0.60;0.60;;;;;;;2.70;86.95;99986.56;5085934;28;20044;-80
2020/12/20 03:59:04;;;;;;;0.30;0.30;;;;;;;2.97;87.25;99984.06;5086702;28;20028;-81
2020/12/20 04:01:29;;;;;;;0.98;0.98;;;;;;;2.86;87.02;99959.25;5084976;28;20033;-81
2020/12/20 04:03:55;;;;;;;2.08;1.67;;;;;;;2.91;86.90;99967.16;5083703;28;20150;-76
2020/12/20 04:06:20;;;;;;;1.02;0.57;;;;;;;2.84;87.54;99986.91;5078126;28;20025;-77
2020/12/20 04:08:46;;;;;;;1.35;1.27;;;;;;;3.20;87.80;100029.47;5078346;28;20024;-78
2020/12/20 04:11:12;;;;;;;0.68;0.68;;;;;;;2.92;87.28;99955.13;5080389;28;20028;-81
2020/12/20 04:13:37;;;;;;;1.60;1.50;;;;;;;3.08;87.25;100001.50;5084109;28;20032;-80
2020/12/20 04:16:10;;;;;;;0.50;0.50;;;;;;;2.94;86.98;99980.13;5080727;28;20028;-78
2020/12/20 04:18:36;;;;;;;2.38;1.23;;;;;;;2.84;86.85;99964.28;5087121;28;20040;-82
2020/12/20 04:21:03;;;;;;;2.05;1.95;;;;;;;3.26;87.44;100062.78;5094867;28;20028;-76
2020/12/20 04:23:29;;;;;;;2.83;2.60;;;;;;;2.65;87.58;99958.75;5080756;28;20048;-78
2020/12/20 04:25:55;;;;;;;0.40;0.40;;;;;;;3.09;88.14;100017.53;5099241;28;20050;-76
2020/12/20 04:28:20;;;;;;;0.55;0.55;;;;;;;3.30;87.84;100038.28;5079039;28;20056;-77
2020/12/20 04:30:47;;;;;;;1.75;1.65;;;;;;;3.01;86.95;99982.25;5063950;28;20096;-77
2020/12/20 04:33:12;;;;;;;0.60;0.60;;;;;;;3.06;86.91;99982.75;5081620;28;20506;-77
2020/12/20 04:35:38;;;;;;;0.32;0.32;;;;;;;2.88;87.64;99967.91;5078325;28;20044;-76
2020/12/20 04:38:04;;;;;;;2.47;2.28;;;;;;;2.76;87.72;99946.16;5074833;28;20503;-73
2020/12/20 04:40:29;;;;;;;1.38;1.30;;;;;;;3.06;87.62;99987.41;5079749;28;20032;-81
2020/12/20 04:43:02;;;;;;;1.45;1.45;;;;;;;3.08;87.88;100007.75;5082928;28;20039;-82
2020/12/20 04:45:28;;;;;;;1.67;1.63;;;;;;;2.92;87.55;100004.25;5085041;28;20028;-80
2020/12/20 04:47:56;;;;;;;1.70;1.63;;;;;;;3.05;87.65;100003.00;5083627;28;20028;-76
2020/12/20 04:50:23;;;;;;;0.57;0.57;;;;;;;3.03;88.45;100008.03;5087073;28;20031;-82
2020/12/20 04:52:52;;;;;;;0.95;0.95;;;;;;;2.95;89.17;100019.94;5087763;28;20054;-81
2020/12/20 04:55:20;;;;;;;1.77;1.67;;;;;;;2.99;89.19;100012.59;5085091;28;20035;-80
2020/12/20 04:57:46;;;;;;;1.60;1.60;;;;;;;3.16;89.57;100049.66;5082698;28;20067;-77
2020/12/20 05:00:11;;;;;;;5.93;2.45;;;;;;;2.52;89.75;99946.34;5083198;28;20097;-79
2020/12/20 05:02:37;;;;;;;1.85;1.75;;;;;;;2.82;89.42;100019.22;5120966;28;20029;-78
2020/12/20 05:05:03;;;;;;;3.72;1.48;;;;;;;2.91;88.99;99999.94;5088028;28;20031;-80
2020/12/20 05:07:29;;;;;;;3.00;2.78;;;;;;;2.97;88.83;100023.09;5118587;28;20025;-77
2020/12/20 05:09:54;;;;;;;2.92;2.72;;;;;;;3.05;88.58;100008.47;5119083;28;20021;-79
2020/12/20 05:12:38;;;;;;;3.60;2.20;;;;;;;3.25;88.26;100039.38;5117596;28;20025;-76
2020/12/20 05:15:22;;;;;;;1.58;1.48;;;;;;;2.70;88.11;99948.38;5082089;28;20059;-78
2020/12/20 05:17:47;;;;;;;4.22;3.03;;;;;;;2.74;88.55;99986.66;5119120;28;20124;-77
2020/12/20 05:20:33;;;;;;;1.15;1.15;;;;;;;3.04;88.80;100015.06;5081703;28;20060;-78
2020/12/20 05:22:59;;;;;;;5.43;3.35;;;;;;;3.10;88.64;100019.13;5062441;28;20028;-75
2020/12/20 05:25:24;;;;;;;3.30;2.38;;;;;;;3.03;88.40;100008.03;5077189;28;20151;-77
2020/12/20 05:27:50;;;;;;;1.38;1.30;;;;;;;3.37;88.22;100052.13;5077810;28;20056;-76
2020/12/20 05:30:17;;;;;;;1.88;1.45;;;;;;;3.11;87.62;100023.44;5078652;28;20414;-75
2020/12/20 05:32:44;;;;;;;0.98;0.80;;;;;;;3.16;87.54;100016.91;5080623;28;20489;-77
2020/12/20 05:35:15;;;;;;;0.57;0.57;;;;;;;3.12;87.19;100057.00;5077137;28;20059;-76
2020/12/20 05:37:42;;;;;;;0.45;0.35;;;;;;;3.06;87.29;100048.28;5076841;28;20035;-77
2020/12/20 05:40:15;;;;;;;1.13;1.13;;;;;;;3.42;87.05;100081.91;5075463;28;20028;-74
2020/12/20 05:42:52;;;;;;;1.52;1.42;;;;;;;3.41;86.67;100052.97;5075780;28;20054;-77
2020/12/20 05:45:19;;;;;;;2.17;1.88;;;;;;;3.24;86.12;100032.31;5108875;28;20186;-75
2020/12/20 05:47:45;;;;;;;0.95;0.95;;;;;;;3.22;86.02;100023.69;5075460;28;20472;-76
2020/12/20 05:50:13;;;;;;;2.17;1.38;;;;;;;3.03;85.83;100002.56;5109475;28;20021;-78
2020/12/20 05:52:39;;;;;;;1.15;1.15;;;;;;;3.18;85.43;100029.06;5077796;28;20032;-76
2020/12/20 05:55:12;;;;;;;0.50;0.50;;;;;;;3.22;85.19;100051.78;5077684;28;20028;-77
2020/12/20 05:57:37;;;;;;;1.15;1.05;;;;;;;3.43;85.28;100083.47;5078338;28;20020;-80
2020/12/20 06:00:04;;;;;;;6.78;3.20;;;;;;;3.46;85.70;100104.63;5076981;28;20407;-75
2020/12/20 06:02:30;;;;;;;1.05;0.98;;;;;;;3.22;85.10;100054.50;5076972;28;20032;-76
2020/12/20 06:04:55;;;;;;;2.38;2.28;;;;;;;3.40;84.23;100092.38;5077459;28;20482;-75
2020/12/20 06:07:26;;;;;;;0.50;0.50;;;;;;;3.27;84.65;100046.03;5077978;28;20096;-77
2020/12/20 06:09:59;;;;;;;1.20;1.20;;;;;;;3.06;84.98;100040.09;5058538;28;20032;-76
2020/12/20 06:12:28;;;;;;;0.73;0.73;;;;;;;3.10;85.94;100043.69;5110609;28;20115;-75
2020/12/20 06:14:56;;;;;;;0.90;0.90;;;;;;;3.03;86.26;100010.75;5076208;28;20024;-76
2020/12/20 06:17:42;;;;;;;2.13;1.60;;;;;;;3.15;86.84;100070.72;5076112;28;20385;-74
2020/12/20 06:40:29;;;;;;;4.32;4.10;;;;;;;3.79;84.54;100102.28;4983963;23;20059;-88
2020/12/20 06:42:57;;;;;;;1.33;1.20;;;;;;;3.06;84.10;99996.41;4962187;29;20039;-88
2020/12/20 06:45:24;;;;;;;0.33;0.33;;;;;;;3.59;83.62;100059.66;4960571;29;20060;-88
2020/12/20 06:50:43;;;;;;;1.63;1.58;;;;;;;3.40;83.75;100073.25;5111468;23;20031;-90
2020/12/20 06:53:11;;;;;;;0.30;0.30;;;;;;;3.44;83.66;100063.19;4963869;28;20047;-90
2020/12/20 07:33:35;;;;;;;3.70;3.03;;;;;;;4.06;82.53;100139.59;5965105;23;20845;-89
2020/12/20 10:59:08;;;;;;;1.20;1.20;;;;;;;6.56;73.18;100068.53;6121652;23;20027;31
2020/12/20 11:02:06;;;;;;;0.68;0.68;;;;;;;6.69;72.42;100073.38;6030162;23;20026;31
2020/12/20 11:04:37;;;;;;;8.85;0.98;;;;;;;6.06;71.55;99996.63;5457731;23;20119;-90
2020/12/20 11:09:55;;;;;;;2.03;1.85;;;;;;;6.56;72.77;100063.03;6118983;23;20025;31
2020/12/20 11:49:30;;;;;;;5.15;1.60;;;;;;;6.09;72.36;100010.34;5453098;23;20022;-87
2020/12/20 11:51:57;;;;;;;1.15;1.10;;;;;;;5.53;73.07;99963.03;4968861;28;20123;-87
2020/12/20 11:54:24;;;;;;;0.50;0.50;;;;;;;6.09;73.22;100026.03;5023795;23;20055;-88
2020/12/20 11:56:50;;;;;;;0.90;0.90;;;;;;;6.30;73.24;100067.47;4975439;28;20027;-88
2020/12/20 11:59:17;;;;;;;0.30;0.30;;;;;;;5.68;73.45;99992.19;4976172;28;20030;-88
2020/12/20 12:01:46;;;;;;;1.85;1.75;;;;;;;5.60;72.79;99966.66;4957304;28;20042;-87
2020/12/20 12:04:13;;;;;;;8.75;2.65;;;;;;;5.49;73.41;99962.94;4974600;28;20085;-88
2020/12/20 12:06:41;;;;;;;7.63;3.33;;;;;;;5.71;72.85;99961.28;5013639;23;20011;-87
2020/12/20 12:09:07;;;;;;;1.55;1.52;;;;;;;5.68;72.77;99967.50;5050666;23;20069;-87
2020/12/20 12:11:43;;;;;;;2.53;2.42;;;;;;;6.08;72.05;100010.75;4997037;28;20026;-90
2020/12/20 12:14:09;;;;;;;0.43;0.43;;;;;;;5.78;71.96;100012.69;4995150;28;20031;-87
2020/12/20 12:16:35;;;;;;;1.15;1.15;;;;;;;5.29;74.04;99967.00;4994199;28;20034;-87
2020/12/20 12:19:01;;;;;;;1.30;1.30;;;;;;;5.41;73.44;99966.00;4993710;28;20034;-87
2020/12/20 12:21:27;;;;;;;0.28;0.28;;;;;;;6.30;73.39;100070.19;4993790;28;20061;-88
2020/12/20 12:23:54;;;;;;;1.05;1.05;;;;;;;6.54;72.55;100066.94;4993869;28;20030;-88
2020/12/20 12:26:20;;;;;;;2.72;1.15;;;;;;;6.08;72.96;99980.56;4993938;28;20045;-88
2020/12/20 12:28:45;;;;;;;1.58;1.48;;;;;;;6.57;71.80;100059.13;4995737;28;20034;-87
2020/12/20 12:31:12;;;;;;;0.45;0.45;;;;;;;6.19;71.83;100000.69;5013715;28;20054;-88
2020/12/20 12:33:38;;;;;;;0.80;0.80;;;;;;;5.92;72.10;100001.91;4998162;28;20018;-88
2020/12/20 12:36:05;;;;;;;0.73;0.73;;;;;;;5.93;71.15;99963.16;4983471;28;20034;-88
2020/12/20 12:43:42;;;;;;;0.38;0.38;;;;;;;6.78;71.56;100049.16;5402463;23;20054;-88
2020/12/20 12:46:08;;;;;;;1.17;1.17;;;;;;;6.11;71.07;99966.09;4978534;28;20090;-88
2020/12/20 12:48:36;;;;;;;0.90;0.90;;;;;;;6.32;70.63;99977.31;4979085;28;20019;-88
2020/12/20 12:51:01;;;;;;;1.25;1.00;;;;;;;5.93;71.41;99968.63;4978367;28;20066;-88
2020/12/20 12:53:27;;;;;;;0.85;0.85;;;;;;;6.75;71.78;100054.63;4977094;28;20027;-88
2020/12/20 12:55:53;;;;;;;0.93;0.93;;;;;;;6.28;71.30;100014.09;4977564;28;20021;-88
2020/12/20 12:58:19;;;;;;;1.92;0.90;;;;;;;5.99;71.63;99980.06;4976649;28;20046;-88
2020/12/20 13:00:46;;;;;;;2.65;1.58;;;;;;;5.86;71.81;99964.97;4979948;28;20037;-88
2020/12/20 13:03:12;;;;;;;0.20;0.20;;;;;;;5.84;72.74;99970.06;4981496;28;20003;-88
2020/12/20 13:05:39;;;;;;;1.85;1.80;;;;;;;5.79;73.00;99975.88;4980115;28;20026;-88
2020/12/20 13:08:05;;;;;;;6.63;1.75;;;;;;;5.63;73.00;99970.59;4980653;28;20062;-88
2020/12/20 13:10:31;;;;;;;0.45;0.45;;;;;;;6.05;73.51;100036.19;4979555;28;20027;-88
2020/12/20 13:12:57;;;;;;;0.75;0.75;;;;;;;5.32;73.58;99952.53;4979706;28;20514;-88
2020/12/20 13:15:23;;;;;;;1.30;1.13;;;;;;;6.10;73.92;100060.53;4976859;28;20011;-88
2020/12/20 13:17:49;;;;;;;7.65;2.50;;;;;;;5.60;74.26;99960.38;5124011;23;20503;-86
2020/12/20 13:22:57;;;;;;;0.93;0.93;;;;;;;5.68;72.37;99992.19;5033174;23;20074;-88
2020/12/20 13:25:22;;;;;;;1.13;1.10;;;;;;;5.60;71.99;99965.84;5012211;23;20153;-88
2020/12/20 13:27:48;;;;;;;3.15;2.85;;;;;;;5.53;72.61;99990.44;4956416;23;20059;-87
2020/12/20 13:30:14;;;;;;;1.75;1.73;;;;;;;5.98;73.96;100052.53;5043134;23;20052;-87
2020/12/20 13:32:40;;;;;;;1.58;1.58;;;;;;;5.40;73.98;99980.84;5082858;23;20505;-88
2020/12/20 13:35:06;;;;;;;2.92;1.42;;;;;;;5.40;74.41;99984.38;4922731;29;20028;-88
2020/12/20 13:37:32;;;;;;;1.70;1.52;;;;;;;6.07;74.66;100061.31;4921860;29;20036;-88
2020/12/20 13:39:58;;;;;;;0.65;0.65;;;;;;;5.33;73.57;99989.75;4965954;23;20019;-87
2020/12/20 13:45:06;;;;;;;1.48;1.25;;;;;;;5.63;74.65;100063.78;5075747;23;20108;-88
2020/12/20 13:52:35;;;;;;;;;;;;;;;5.89;74.12;100069.28;5036087;23;20066;-88
2020/12/20 13:55:00;;;;;;;1.88;1.85;;;;;;;5.78;74.99;100065.59;5215962;23;19985;-88
2020/12/20 14:00:04;;;;;;;3.63;1.83;;;;;;;5.35;75.43;100020.34;4940032;29;20059;-88
2020/12/20 14:02:30;;;;;;;2.10;0.57;;;;;;;5.27;76.80;100030.38;4940691;29;20024;-88
2020/12/20 14:04:55;;;;;;;4.32;3.55;;;;;;;5.51;75.63;100053.03;4939205;29;20055;-88
2020/12/20 14:07:21;;;;;;;3.38;3.08;;;;;;;4.81;75.56;100004.22;4939922;29;20035;-89
2020/12/20 14:09:47;;;;;;;1.38;1.13;;;;;;;4.90;74.61;99997.31;4941708;29;20035;-89
2020/12/20 14:12:14;;;;;;;5.32;3.45;;;;;;;4.86;74.98;99969.09;4942201;29;20012;-89
2020/12/20 14:14:40;;;;;;;1.65;1.55;;;;;;;4.94;75.29;99999.34;4942871;29;20003;-89
2020/12/20 14:17:06;;;;;;;1.15;1.15;;;;;;;4.98;75.88;100039.31;4934802;29;20531;-85
2020/12/20 14:19:32;;;;;;;1.75;1.55;;;;;;;5.46;76.17;100080.78;4930698;29;20031;-85
2020/12/20 14:21:58;;;;;;;1.83;1.73;;;;;;;4.53;77.14;99971.66;4936855;29;20125;-86
2020/12/20 14:24:33;;;;;;;0.68;0.68;;;;;;;5.19;77.11;100075.25;4938849;29;20034;-89
2020/12/20 14:26:59;;;;;;;0.70;0.70;;;;;;;4.43;75.55;99972.28;4941750;29;20036;-88
2020/12/20 14:29:25;;;;;;;7.00;4.05;;;;;;;4.51;75.59;99990.41;4940739;29;20043;-88
2020/12/20 14:31:51;;;;;;;7.95;7.22;;;;;;;5.35;75.60;100083.34;4941373;29;20023;-89
2020/12/20 14:34:19;;;;;;;17.13;7.32;;;;;;;4.55;75.65;99979.50;4959320;29;20028;-89
2020/12/20 14:36:46;;;;;;;12.25;6.97;;;;;;;4.63;76.42;99986.69;4942392;29;20008;-88
2020/12/20 14:39:12;;;;;;;4.05;3.72;;;;;;;4.65;76.26;99987.09;4940190;29;20031;-88
2020/12/20 14:41:38;;;;;;;13.30;5.13;;;;;;;4.66;75.78;99994.97;4969305;23;20040;-88
2020/12/20 15:00:15;;;;;;;13.57;7.38;;;;;;;4.39;77.35;100007.00;5329196;23;20052;-88
2020/12/20 15:02:41;;;;;;;8.23;6.78;;;;;;;4.66;78.45;100027.00;4981198;28;20042;-88
2020/12/20 15:05:07;;;;;;;7.40;5.30;;;;;;;4.82;79.53;100087.94;4979420;28;20062;-88
2020/12/20 15:07:32;;;;;;;3.67;3.42;;;;;;;4.09;79.70;100002.16;4979756;28;20031;-89
2020/12/20 15:09:58;;;;;;;7.57;5.57;;;;;;;4.08;80.07;100003.28;4978670;28;20061;-88
2020/12/20 15:12:24;;;;;;;3.88;3.58;;;;;;;4.14;80.60;100013.94;4979211;28;20053;-87
2020/12/20 15:14:50;;;;;;;5.00;2.88;;;;;;;4.17;80.22;100018.66;4978489;28;20034;-88
2020/12/20 15:17:17;;;;;;;3.47;2.72;;;;;;;4.32;80.52;100023.28;4976927;28;20022;-88
2020/12/20 15:19:42;;;;;;;2.70;2.60;;;;;;;4.02;80.52;100017.63;4976128;28;20038;-85
2020/12/20 15:22:08;;;;;;;5.03;4.55;;;;;;;4.50;80.56;100073.66;4965795;28;20039;-87
2020/12/20 15:24:34;;;;;;;2.65;2.45;;;;;;;4.48;80.62;100062.25;4984441;23;20066;-86
2020/12/20 15:27:00;;;;;;;7.00;4.43;;;;;;;4.30;82.01;100050.97;4965710;28;20019;-87
2020/12/20 15:29:26;;;;;;;5.03;4.28;;;;;;;4.21;82.50;100035.97;4968749;28;20045;-88
2020/12/20 15:31:52;;;;;;;4.25;2.70;;;;;;;3.86;82.01;100004.00;5010060;23;20117;-88
2020/12/20 15:37:13;;;;;;;4.65;4.25;;;;;;;3.77;82.65;100011.63;5846265;23;20105;-88
2020/12/20 15:39:39;;;;;;;4.28;2.92;;;;;;;3.77;82.98;99983.50;4960678;29;20050;-88
2020/12/20 15:42:06;;;;;;;4.40;4.05;;;;;;;3.86;82.89;100017.66;4956642;29;20047;-87
2020/12/20 15:44:33;;;;;;;14.32;4.18;;;;;;;3.76;82.85;100020.19;4953910;29;20037;-86
2020/12/20 15:47:01;;;;;;;2.97;2.10;;;;;;;3.86;82.96;100053.19;4952750;29;20034;-88
2020/12/20 15:49:28;;;;;;;14.10;6.30;;;;;;;3.88;82.94;100039.19;4975218;23;20023;-88
2020/12/20 15:51:55;;;;;;;2.28;2.08;;;;;;;3.62;83.35;100021.47;5156056;23;20066;-89
2020/12/20 15:56:57;;;;;;;5.13;4.40;;;;;;;3.60;83.40;100031.97;5650906;23;20027;-89
2020/12/20 16:30:34;;;;;;;6.13;4.43;;;;;;;4.54;84.80;100144.88;1734771;23;20226;-87
2020/12/20 16:59:53;;;;;;;3.53;3.30;;;;;;;4.46;85.81;100141.22;6096388;23;20021;-88
2020/12/20 17:04:57;;;;;;;4.03;3.72;;;;;;;4.01;85.68;100076.19;5572503;23;20083;-91
2020/12/20 18:23:47;;;;;;;7.88;6.38;;;;;;;3.51;88.59;100063.34;5715641;23;20034;-89
2020/12/20 18:55:12;;;;;;;2.65;2.45;;;;;;;3.66;88.96;100104.34;5695771;23;20039;-87
2020/12/20 19:23:11;;;;;;;5.05;4.55;;;;;;;4.43;89.44;100182.97;5435104;23;20073;-88
2020/12/20 19:25:37;;;;;;;8.57;4.85;;;;;;;4.15;90.02;100139.41;4992003;28;20038;-87
2020/12/20 19:28:02;;;;;;;8.60;5.25;;;;;;;3.74;89.74;100109.97;4991698;28;20027;-87
2020/12/20 19:30:32;;;;;;;4.60;4.25;;;;;;;3.68;90.06;100101.22;4984470;28;20109;-87
2020/12/20 19:33:01;;;;;;;9.35;5.15;;;;;;;3.62;90.46;100105.38;5017675;28;20043;-87
2020/12/20 19:35:26;;;;;;;1.80;1.77;;;;;;;3.66;90.25;100115.25;4969795;28;20020;-88
2020/12/20 19:37:52;;;;;;;5.35;4.45;;;;;;;4.32;90.44;100187.41;4999092;28;20096;-87
2020/12/20 19:40:18;;;;;;;2.40;2.22;;;;;;;4.16;90.30;100153.88;4995003;28;20038;-87
2020/12/20 19:42:46;;;;;;;1.55;1.45;;;;;;;3.63;90.22;100094.09;4999949;28;20022;-87
2020/12/20 19:45:12;;;;;;;1.75;1.65;;;;;;;3.64;90.35;100098.41;4999692;28;20289;-87
2020/12/20 19:47:37;;;;;;;4.32;2.13;;;;;;;3.71;90.35;100105.19;4999864;28;20017;-87
2020/12/20 19:50:04;;;;;;;1.17;1.17;;;;;;;3.79;89.89;100113.22;5007490;23;20061;-88
2020/12/20 19:52:35;;;;;;;7.30;2.28;;;;;;;3.81;89.78;100108.16;4976864;28;20046;-88
2020/12/20 19:55:00;;;;;;;2.38;2.25;;;;;;;3.77;90.23;100106.50;5002222;23;20042;-87
2020/12/20 20:00:22;;;;;;;3.00;2.80;;;;;;;4.43;90.93;100186.50;5026568;23;20066;-88
2020/12/20 20:02:48;;;;;;;3.70;3.17;;;;;;;4.51;90.08;100171.03;4999309;28;20050;-88
2020/12/20 20:05:14;;;;;;;2.97;2.78;;;;;;;4.09;89.89;100155.28;5010464;23;20062;-89
2020/12/20 20:07:40;;;;;;;2.67;2.47;;;;;;;4.27;90.11;100152.94;4959566;28;20039;-88
2020/12/20 20:10:07;;;;;;;2.22;2.13;;;;;;;4.52;89.96;100188.25;4955194;29;20032;-87
2020/12/20 20:12:33;;;;;;;1.52;1.50;;;;;;;4.16;90.21;100151.88;4937730;29;20047;-87
2020/12/20 20:14:58;;;;;;;1.10;1.10;;;;;;;3.78;89.61;100095.22;4934507;29;20096;-87
2020/12/20 20:17:25;;;;;;;3.08;2.40;;;;;;;4.31;89.62;100153.81;4945946;29;20027;-88
2020/12/20 20:19:52;;;;;;;12.30;6.50;;;;;;;4.29;88.99;100147.09;4970010;28;20039;-88
2020/12/20 20:22:18;;;;;;;37.13;8.48;;;;;;;3.80;89.12;100101.09;4974950;28;20034;-86
2020/12/20 20:24:44;;;;;;;12.27;4.85;;;;;;;4.09;88.68;100111.53;4972237;28;20062;-87
2020/12/20 20:27:11;;;;;;;5.90;2.80;;;;;;;4.31;88.76;100151.06;4973112;28;20045;-86
2020/12/20 20:29:50;;;;;;;3.10;2.80;;;;;;;4.17;88.49;100125.34;5070553;27;20869;-76
2020/12/20 20:32:16;;;;;;;1.27;1.25;;;;;;;3.90;88.79;100086.09;5069760;28;20044;-76
2020/12/20 20:34:41;;;;;;;2.53;2.40;;;;;;;3.97;88.59;100091.72;5059897;28;20029;-76